createdAt,value
2022-09-28T00:01:26.139Z,8.22
2022-09-28T00:06:41.792Z,8.14
2022-09-28T00:09:50.175Z,8.15
2022-09-28T00:12:33.518Z,8.13
2022-09-28T00:15:03.865Z,8.08
2022-09-28T00:21:06.777Z,8.04
2022-09-28T00:23:34.220Z,7.99
2022-09-28T00:26:12.985Z,7.98
2022-09-28T00:29:11.107Z,8.00
2022-09-28T00:31:42.849Z,7.97
2022-09-28T00:34:13.789Z,7.94
2022-09-28T00:36:45.377Z,7.96
2022-09-28T00:39:14.663Z,7.99
2022-09-28T00:41:42.710Z,7.97
2022-09-28T00:44:24.721Z,8.00
2022-09-28T00:47:25.610Z,8.01
2022-09-28T00:50:05.947Z,7.98
2022-09-28T00:52:59.003Z,8.01
2022-09-28T00:55:39.787Z,8.00
2022-09-28T00:58:19.506Z,7.96
2022-09-28T01:01:16.889Z,7.99
2022-09-28T01:03:50.876Z,8.01
2022-09-28T01:10:22.593Z,8.03
2022-09-28T01:13:32.825Z,8.06
2022-09-28T01:20:04.619Z,8.02
2022-09-28T01:23:21.745Z,7.96
2022-09-28T01:27:01.877Z,8.00
2022-09-28T01:29:45.850Z,8.02
2022-09-28T01:32:36.599Z,7.99
2022-09-28T01:36:05.218Z,7.97
2022-09-28T01:42:02.193Z,8.07
2022-09-28T01:44:42.522Z,8.11
2022-09-28T01:47:22.380Z,8.07
2022-09-28T01:50:03.608Z,8.11
2022-09-28T01:52:45.925Z,8.10
2022-09-28T01:55:47.097Z,8.07
2022-09-28T02:02:27.443Z,8.04
2022-09-28T02:05:03.811Z,8.01
2022-09-28T02:08:03.730Z,7.98
2022-09-28T02:10:47.549Z,8.00
2022-09-28T02:13:33.137Z,7.96
2022-09-28T02:16:36.242Z,8.00
2022-09-28T02:22:38.636Z,7.99
2022-09-28T02:25:34.729Z,8.02
2022-09-28T02:28:08.227Z,7.98
2022-09-28T02:30:41.264Z,7.96
2022-09-28T02:33:33.826Z,7.95
2022-09-28T02:36:19.422Z,7.99
2022-09-28T02:38:50.186Z,7.96
2022-09-28T02:41:39.890Z,7.96
2022-09-28T02:44:22.472Z,7.96
2022-09-28T02:47:51.027Z,7.94
2022-09-28T02:50:59.225Z,7.96
2022-09-28T02:53:58.869Z,7.99
2022-09-28T02:56:47.052Z,8.03
2022-09-28T03:02:58.756Z,8.10
2022-09-28T03:05:50.246Z,8.13
2022-09-28T03:08:49.674Z,8.09
2022-09-28T03:11:35.546Z,8.14
2022-09-28T03:14:03.402Z,8.12
2022-09-28T03:16:32.138Z,8.17
2022-09-28T03:21:56.008Z,8.15
2022-09-28T03:24:47.708Z,8.17
2022-09-28T03:27:51.318Z,8.17
2022-09-28T03:30:28.406Z,8.21
2022-09-28T03:33:10.237Z,8.21
2022-09-28T03:35:36.890Z,8.11
2022-09-28T03:38:06.422Z,8.10
2022-09-28T03:40:33.071Z,8.10
2022-09-28T03:43:05.826Z,8.09
2022-09-28T03:45:36.777Z,8.11
2022-09-28T03:48:13.441Z,8.09
2022-09-28T03:50:40.988Z,8.10
2022-09-28T03:53:08.040Z,8.14
2022-09-28T03:55:36.191Z,8.10
2022-09-28T04:00:50.193Z,8.08
2022-09-28T04:03:22.237Z,8.01
2022-09-28T04:05:56.111Z,7.96
2022-09-28T04:08:22.676Z,7.96
2022-09-28T04:10:49.230Z,7.86
2022-09-28T04:13:15.892Z,7.88
2022-09-28T04:15:43.503Z,7.83
2022-09-28T04:18:17.121Z,7.78
2022-09-28T04:20:48.143Z,7.78
2022-09-28T04:23:25.947Z,7.76
2022-09-28T04:26:06.971Z,7.73
2022-09-28T04:28:52.444Z,7.67
2022-09-28T04:31:23.796Z,7.65
2022-09-28T04:33:51.976Z,7.63
2022-09-28T04:36:22.133Z,7.61
2022-09-28T04:38:53.194Z,7.55
2022-09-28T04:41:22.522Z,7.49
2022-09-28T04:43:49.919Z,7.45
2022-09-28T04:46:29.729Z,7.37
2022-09-28T04:49:03.806Z,7.38
2022-09-28T04:51:39.521Z,7.38
2022-09-28T04:54:15.096Z,7.32
2022-09-28T04:56:41.898Z,7.34
2022-09-28T04:59:14.711Z,7.31
2022-09-28T05:02:05.291Z,7.28
2022-09-28T05:04:32.061Z,7.28
2022-09-28T05:07:04.323Z,7.25
2022-09-28T05:09:41.118Z,7.24
2022-09-28T05:12:09.781Z,7.24
2022-09-28T05:14:36.310Z,7.22
2022-09-28T05:17:12.554Z,7.18
2022-09-28T05:19:41.939Z,7.15
2022-09-28T05:22:15.707Z,7.14
2022-09-28T05:25:09.290Z,7.09
2022-09-28T05:27:44.828Z,7.05
2022-09-28T05:30:19.588Z,7.05
2022-09-28T05:32:52.714Z,7.00
2022-09-28T05:35:19.446Z,6.99
2022-09-28T05:37:49.851Z,6.96
2022-09-28T05:40:17.208Z,6.98
2022-09-28T05:42:43.830Z,6.97
2022-09-28T05:45:10.995Z,6.97
2022-09-28T05:47:48.886Z,6.95
2022-09-28T05:50:21.054Z,6.94
2022-09-28T05:52:51.643Z,6.96
2022-09-28T05:55:18.213Z,6.97
2022-09-28T05:57:44.860Z,7.00
2022-09-28T06:00:20.412Z,7.04
2022-09-28T06:03:08.081Z,7.07
2022-09-28T06:05:52.091Z,7.07
2022-09-28T06:11:46.980Z,7.18
2022-09-28T06:14:23.076Z,7.20
2022-09-28T06:16:50.294Z,7.21
2022-09-28T06:22:17.415Z,7.28
2022-09-28T06:24:44.039Z,7.40
2022-09-28T06:30:53.713Z,7.49
2022-09-28T06:36:30.258Z,7.72
2022-09-28T06:39:07.209Z,7.69
2022-09-28T06:42:09.648Z,7.64
2022-09-28T06:45:09.328Z,7.60
2022-09-28T06:47:56.992Z,7.56
2022-09-28T06:50:43.095Z,7.52
2022-09-28T06:53:18.549Z,7.61
2022-09-28T06:55:51.862Z,8.08
2022-09-28T06:58:20.830Z,8.83
2022-09-28T07:00:59.397Z,9.29
2022-09-28T07:03:34.141Z,9.60
2022-09-28T07:06:12.918Z,10.09
2022-09-28T07:08:56.561Z,10.31
2022-09-28T07:11:44.925Z,10.83
2022-09-28T07:14:28.002Z,11.40
2022-09-28T07:17:13.056Z,11.42
2022-09-28T07:22:41.179Z,12.83
2022-09-28T07:25:27.483Z,12.16
2022-09-28T07:28:11.045Z,11.78
2022-09-28T07:30:56.611Z,11.81
2022-09-28T07:33:34.576Z,12.45
2022-09-28T07:36:15.817Z,13.12
2022-09-28T07:38:45.261Z,13.45
2022-09-28T07:41:24.021Z,13.32
2022-09-28T07:44:37.963Z,13.35
2022-09-28T07:47:11.937Z,13.72
2022-09-28T07:50:21.381Z,12.58
2022-09-28T07:52:53.229Z,12.36
2022-09-28T07:55:21.387Z,11.69
2022-09-28T07:57:54.339Z,11.23
2022-09-28T08:00:34.227Z,11.21
2022-09-28T08:03:04.266Z,10.94
2022-09-28T08:05:39.432Z,10.54
2022-09-28T08:08:12.230Z,10.66
2022-09-28T08:10:43.378Z,11.02
2022-09-28T08:13:12.445Z,11.27
2022-09-28T08:15:39.128Z,10.99
2022-09-28T08:18:06.114Z,10.99
2022-09-28T08:20:52.140Z,10.55
2022-09-28T08:23:20.347Z,10.37
2022-09-28T08:25:49.163Z,10.30
2022-09-28T08:28:18.013Z,10.18
2022-09-28T08:30:49.082Z,10.09
2022-09-28T08:33:30.997Z,10.13
2022-09-28T08:35:59.890Z,10.12
2022-09-28T08:38:28.344Z,10.21
2022-09-28T08:41:16.777Z,10.41
2022-09-28T08:44:08.254Z,10.25
2022-09-28T08:46:45.513Z,10.17
2022-09-28T08:49:36.351Z,10.16
2022-09-28T08:52:23.236Z,10.18
2022-09-28T08:55:26.731Z,9.95
2022-09-28T08:58:02.883Z,9.92
2022-09-28T09:00:50.863Z,10.01
2022-09-28T09:03:42.893Z,10.33
2022-09-28T09:06:32.359Z,10.34
2022-09-28T09:09:28.004Z,10.20
2022-09-28T09:12:16.815Z,10.15
2022-09-28T09:15:13.493Z,10.82
2022-09-28T09:21:31.188Z,11.86
2022-09-28T09:27:57.199Z,12.08
2022-09-28T09:30:31.311Z,12.72
2022-09-28T09:33:41.835Z,14.06
2022-09-28T09:36:42.560Z,14.90
2022-09-28T09:42:57.307Z,15.99
2022-09-28T09:45:58.944Z,16.01
2022-09-28T09:48:39.093Z,15.18
2022-09-28T09:51:34.795Z,15.62
2022-09-28T09:54:31.086Z,15.06
2022-09-28T09:57:31.130Z,14.18
2022-09-28T10:00:02.980Z,13.83
2022-09-28T10:02:44.923Z,14.76
2022-09-28T10:05:53.653Z,14.33
2022-09-28T10:08:46.791Z,14.28
2022-09-28T10:11:22.830Z,14.19
2022-09-28T10:14:03.197Z,13.42
2022-09-28T10:16:40.805Z,12.91
2022-09-28T10:19:16.103Z,12.53
2022-09-28T10:21:55.321Z,12.30
2022-09-28T10:24:58.743Z,12.13
2022-09-28T10:27:45.122Z,12.20
2022-09-28T10:30:27.155Z,12.49
2022-09-28T10:33:04.107Z,12.74
2022-09-28T10:36:06.131Z,12.43
2022-09-28T10:38:38.744Z,12.41
2022-09-28T10:41:24.281Z,12.79
2022-09-28T10:44:25.091Z,13.29
2022-09-28T10:47:09.342Z,13.67
2022-09-28T10:50:00.152Z,13.32
2022-09-28T10:52:56.291Z,14.36
2022-09-28T10:55:36.477Z,14.30
2022-09-28T10:58:26.230Z,14.71
2022-09-28T11:01:13.914Z,14.64
2022-09-28T11:04:08.778Z,14.42
2022-09-28T11:06:41.404Z,14.35
2022-09-28T11:09:52.900Z,14.33
2022-09-28T11:12:28.766Z,13.69
2022-09-28T11:15:18.418Z,13.70
2022-09-28T11:17:49.738Z,13.59
2022-09-28T11:20:28.211Z,14.14
2022-09-28T11:23:02.716Z,14.71
2022-09-28T11:25:42.094Z,14.56
2022-09-28T11:28:38.197Z,14.71
2022-09-28T11:31:14.897Z,15.54
2022-09-28T11:33:53.478Z,16.02
2022-09-28T11:37:00.957Z,15.20
2022-09-28T11:39:43.631Z,15.24
2022-09-28T11:45:55.117Z,14.33
2022-09-28T11:48:39.330Z,14.26
2022-09-28T11:51:18.832Z,14.20
2022-09-28T11:54:02.948Z,13.93
2022-09-28T11:56:39.599Z,13.81
2022-09-28T11:59:18.273Z,13.71
2022-09-28T12:05:20.520Z,13.70
2022-09-28T12:08:02.502Z,14.00
2022-09-28T12:11:09.641Z,13.97
2022-09-28T12:13:44.787Z,14.19
2022-09-28T12:17:00.944Z,14.45
2022-09-28T12:19:32.340Z,15.15
2022-09-28T12:22:11.339Z,14.76
2022-09-28T12:24:43.150Z,15.09
2022-09-28T12:30:34.587Z,16.72
2022-09-28T12:33:51.255Z,16.45
2022-09-28T12:36:20.870Z,17.12
2022-09-28T12:39:40.974Z,17.58
2022-09-28T12:42:33.286Z,17.62
2022-09-28T12:45:30.943Z,17.56
2022-09-28T12:48:35.477Z,16.83
2022-09-28T12:51:47.622Z,15.98
2022-09-28T12:54:52.607Z,15.58
2022-09-28T12:57:51.253Z,15.53
2022-09-28T13:00:26.212Z,15.10
2022-09-28T13:06:05.419Z,14.74
2022-09-28T13:08:56.584Z,14.57
2022-09-28T13:11:22.929Z,14.45
2022-09-28T13:14:31.473Z,14.34
2022-09-28T13:17:08.716Z,14.45
2022-09-28T13:20:19.442Z,14.64
2022-09-28T13:23:09.142Z,14.55
2022-09-28T13:26:12.036Z,14.46
2022-09-28T13:28:49.604Z,14.37
2022-09-28T13:31:37.177Z,14.23
2022-09-28T13:37:36.701Z,13.81
2022-09-28T13:40:06.749Z,13.78
2022-09-28T13:43:03.131Z,13.79
2022-09-28T13:46:35.322Z,13.77
2022-09-28T13:49:22.879Z,13.78
2022-09-28T13:52:49.488Z,13.78
2022-09-28T13:55:40.118Z,13.75
2022-09-28T13:58:25.450Z,13.50
2022-09-28T14:01:10.468Z,13.51
2022-09-28T14:03:38.020Z,13.50
2022-09-28T14:06:53.516Z,13.37
2022-09-28T14:09:49.757Z,13.37
2022-09-28T14:12:52.239Z,13.25
2022-09-28T14:15:45.229Z,13.18
2022-09-28T14:19:09.994Z,13.10
2022-09-28T14:22:16.263Z,12.90
2022-09-28T14:25:23.368Z,12.88
2022-09-28T14:28:29.315Z,12.87
2022-09-28T14:31:34.414Z,12.94
2022-09-28T14:34:13.742Z,13.07
2022-09-28T14:37:09.665Z,13.20
2022-09-28T14:43:30.644Z,13.85
2022-09-28T14:46:21.000Z,14.51
2022-09-28T14:48:51.799Z,14.57
2022-09-28T14:51:32.134Z,14.53
2022-09-28T14:54:41.056Z,14.42
2022-09-28T14:57:39.981Z,14.19
2022-09-28T15:00:38.453Z,14.02
2022-09-28T15:06:35.097Z,13.81
2022-09-28T15:09:04.701Z,13.44
2022-09-28T15:11:44.651Z,13.25
2022-09-28T15:14:17.008Z,13.12
2022-09-28T15:17:01.424Z,12.81
2022-09-28T15:20:00.238Z,12.72
2022-09-28T15:22:36.258Z,12.76
2022-09-28T15:25:29.275Z,12.75
2022-09-28T15:28:19.226Z,12.72
2022-09-28T15:31:05.273Z,12.70
2022-09-28T15:33:59.307Z,12.59
2022-09-28T15:39:23.502Z,12.38
2022-09-28T15:42:05.669Z,12.40
2022-09-28T15:44:46.182Z,12.40
2022-09-28T15:47:28.362Z,12.31
2022-09-28T15:50:27.112Z,12.32
2022-09-28T15:53:26.356Z,12.23
2022-09-28T15:56:10.403Z,12.27
2022-09-28T15:58:46.693Z,12.32
2022-09-28T16:01:39.290Z,12.28
2022-09-28T16:04:47.793Z,12.19
2022-09-28T16:07:52.618Z,12.15
2022-09-28T16:10:33.548Z,11.99
2022-09-28T16:13:38.435Z,12.02
2022-09-28T16:16:26.491Z,11.94
2022-09-28T16:18:58.399Z,11.90
2022-09-28T16:21:49.356Z,11.83
2022-09-28T16:24:48.931Z,11.78
2022-09-28T16:27:40.140Z,11.72
2022-09-28T16:30:31.086Z,11.71
2022-09-28T16:35:56.798Z,11.70
2022-09-28T16:38:26.132Z,11.69
2022-09-28T16:41:09.954Z,11.65
2022-09-28T16:43:51.330Z,11.57
2022-09-28T16:49:24.358Z,11.52
2022-09-28T16:52:03.338Z,11.49
2022-09-28T16:54:57.333Z,11.40
2022-09-28T16:57:32.707Z,11.31
2022-09-28T17:00:04.359Z,11.24
2022-09-28T17:02:46.158Z,11.17
2022-09-28T17:05:23.229Z,11.04
2022-09-28T17:08:07.161Z,11.03
2022-09-28T17:11:24.189Z,10.99
2022-09-28T17:14:10.238Z,10.97
2022-09-28T17:17:56.150Z,10.95
2022-09-28T17:19:59.390Z,10.85
2022-09-28T17:22:39.461Z,10.81
2022-09-28T17:25:19.689Z,10.79
2022-09-28T17:28:00.592Z,10.67
2022-09-28T17:30:36.414Z,10.65
2022-09-28T17:33:07.483Z,10.63
2022-09-28T17:38:24.714Z,10.56
2022-09-28T17:41:06.021Z,10.49
2022-09-28T17:43:49.768Z,10.41
2022-09-28T17:46:42.874Z,10.32
2022-09-28T17:49:15.972Z,10.27
2022-09-28T17:51:53.111Z,10.22
2022-09-28T17:54:30.748Z,10.17
2022-09-28T17:59:44.048Z,10.04
2022-09-28T18:02:18.281Z,9.97
2022-09-28T18:04:54.176Z,9.92
2022-09-28T18:07:25.652Z,9.86
2022-09-28T18:10:22.960Z,9.79
2022-09-28T18:12:59.051Z,9.75
2022-09-28T18:15:50.861Z,9.73
2022-09-28T18:18:18.918Z,9.71
2022-09-28T18:23:42.381Z,9.62
2022-09-28T18:26:29.931Z,9.58
2022-09-28T18:29:04.502Z,9.55
2022-09-28T18:31:40.082Z,9.55
2022-09-28T18:34:32.197Z,9.53
2022-09-28T18:37:08.339Z,9.52
2022-09-28T18:39:48.061Z,9.50
2022-09-28T18:42:26.675Z,9.47
2022-09-28T18:45:01.074Z,9.43
2022-09-28T18:47:27.934Z,9.37
2022-09-28T18:49:54.495Z,9.29
2022-09-28T18:52:21.327Z,9.10
2022-09-28T18:54:50.231Z,8.96
2022-09-28T18:57:17.212Z,8.95
2022-09-28T19:00:10.463Z,8.96
2022-09-28T19:02:44.715Z,8.99
2022-09-28T19:05:20.880Z,9.03
2022-09-28T19:07:50.351Z,9.03
2022-09-28T19:10:34.266Z,9.04
2022-09-28T19:13:15.752Z,9.05
2022-09-28T19:15:45.977Z,9.06
2022-09-28T19:18:22.094Z,9.00
2022-09-28T19:21:07.432Z,9.01
2022-09-28T19:23:48.952Z,8.94
2022-09-28T19:26:20.436Z,8.93
2022-09-28T19:28:51.075Z,8.92
2022-09-28T19:31:23.337Z,8.89
2022-09-28T19:33:56.555Z,8.85
2022-09-28T19:36:25.623Z,8.81
2022-09-28T19:38:53.180Z,8.82
2022-09-28T19:41:43.435Z,8.79
2022-09-28T19:44:21.651Z,8.73
2022-09-28T19:47:10.839Z,8.68
2022-09-28T19:50:06.381Z,8.63
2022-09-28T19:52:35.341Z,8.54
2022-09-28T19:55:11.994Z,8.47
2022-09-28T19:57:51.186Z,8.43
2022-09-28T20:00:39.960Z,8.40
2022-09-28T20:03:22.238Z,8.34
2022-09-28T20:05:49.362Z,8.33
2022-09-28T20:08:16.459Z,8.34
2022-09-28T20:10:52.370Z,8.31
2022-09-28T20:13:20.212Z,8.25
2022-09-28T20:16:05.697Z,8.25
2022-09-28T20:18:43.527Z,8.25
2022-09-28T20:21:26.932Z,8.21
2022-09-28T20:23:58.214Z,8.16
2022-09-28T20:26:27.919Z,8.15
2022-09-28T20:31:49.067Z,8.07
2022-09-28T20:34:31.905Z,8.02
2022-09-28T20:36:58.510Z,7.94
2022-09-28T20:40:00.712Z,7.91
2022-09-28T20:42:33.434Z,7.91
2022-09-28T20:45:07.455Z,7.89
2022-09-28T20:47:43.902Z,7.85
2022-09-28T20:50:14.107Z,7.81
2022-09-28T20:52:50.170Z,7.79
2022-09-28T20:55:25.867Z,7.76
2022-09-28T20:58:08.649Z,7.73
2022-09-28T21:00:36.607Z,7.72
2022-09-28T21:06:16.489Z,7.61
2022-09-28T21:08:49.678Z,7.60
2022-09-28T21:14:13.429Z,7.54
2022-09-28T21:16:50.271Z,7.52
2022-09-28T21:19:24.994Z,7.47
2022-09-28T21:21:54.922Z,7.43
2022-09-28T21:24:22.960Z,7.40
2022-09-28T21:27:00.272Z,7.37
2022-09-28T21:29:31.664Z,7.33
2022-09-28T21:32:00.806Z,7.29
2022-09-28T21:34:46.327Z,7.23
2022-09-28T21:37:23.007Z,7.22
2022-09-28T21:39:50.999Z,7.15
2022-09-28T21:42:18.083Z,7.15
2022-09-28T21:45:01.074Z,7.13
2022-09-28T21:47:50.173Z,7.08
2022-09-28T21:50:22.847Z,7.04
2022-09-28T21:52:59.412Z,7.03
2022-09-28T21:55:42.391Z,7.01
2022-09-28T21:58:19.668Z,6.96
2022-09-28T22:03:52.233Z,6.91
2022-09-28T22:06:29.458Z,6.88
2022-09-28T22:08:57.483Z,6.81
2022-09-28T22:11:35.920Z,6.80
2022-09-28T22:14:19.432Z,6.77
2022-09-28T22:17:25.342Z,6.74
2022-09-28T22:20:11.227Z,6.71
2022-09-28T22:22:39.811Z,6.67
2022-09-28T22:28:19.234Z,6.56
2022-09-28T22:31:00.254Z,6.49
2022-09-28T22:33:59.156Z,6.49
2022-09-28T22:36:47.938Z,6.43
2022-09-28T22:39:14.727Z,6.35
2022-09-28T22:41:52.050Z,6.31
2022-09-28T22:44:34.025Z,6.24
2022-09-28T22:47:02.962Z,6.18
2022-09-28T22:49:32.754Z,6.09
2022-09-28T22:52:02.822Z,6.07
2022-09-28T22:54:38.464Z,6.04
2022-09-28T22:57:10.326Z,6.00
2022-09-28T23:00:15.923Z,5.89
2022-09-28T23:05:23.643Z,5.84
2022-09-28T23:10:53.319Z,5.77
2022-09-28T23:14:19.577Z,5.73
2022-09-28T23:16:52.621Z,5.70
2022-09-28T23:19:19.499Z,5.65
2022-09-28T23:21:50.114Z,5.68
2022-09-28T23:24:31.607Z,5.62
2022-09-28T23:26:58.254Z,5.55
2022-09-28T23:29:29.366Z,5.54
2022-09-28T23:31:58.480Z,5.53
2022-09-28T23:34:29.062Z,5.51
2022-09-28T23:37:04.281Z,5.47
2022-09-28T23:39:35.519Z,5.44
2022-09-28T23:42:07.278Z,5.39
2022-09-28T23:44:33.822Z,5.40
2022-09-28T23:47:00.417Z,5.35
2022-09-28T23:49:27.002Z,5.35
2022-09-28T23:51:56.042Z,5.30
2022-09-28T23:54:38.753Z,5.25
2022-09-28T23:59:59.278Z,5.19
